logo
Search for airport 
image banner adimage banner adimage banner ad
image banner ad

EYMA - Mazeikiai/J.Kumpikeviciaus

Located in Mazeikiai, Lithuania

ICAO - EYMA, IATA -

Data provided by Airmate  

General information

Coordinates: N56°13'50" E22°15'34"
Elevation is 274 feet MSL.
Magnetic variation is 7° East
View others Airports in Telšiai County

Operational data

Special qualification required
Current time UTC:
Current local time:
Weather at : EYPA - Palanga/International ( 78 km )
TAF: TAF EYPA 170516Z 1706/1806 33007KT 9000 BKN015 TEMPO 1706/1708 BKN010 TEMPO 1708/1712 SCT015CB TEMPO 1712/1718 36015G25KT SCT015CB TEMPO 1800/1806 BKN010
View NOTAMs / SUP AIP / TFR affecting this airport [VIEW]
Communications frequencies: [VIEW]

Runways:

RWY identifierQFULength (ft)Width (ft)SurfaceLDA (ft)
0671°259272GRASS
24251°259272GRASS

Airport contact information

Address: Mazeikiai Lithuania

Satellite view of EYMA